Nearby METAR Reports

 

K9MN - St Mary Hospital, Minnesota, USA
Distance from station: SW 3mi, 4km
Updated: 11/29/2021 7:55am
Overcast
Overcast
 Wind from SE
Wind: SE 10 mph , 17 km/h, Gust: 18 mph , 30 km/h
Temperature: 37°F , 3°C
Wind Chill: 30°F , -1°C
Dew Point: 21°F , -6°C
Humidity: 52%
Barometer: 29.80 inHg , 1009.1 hPa
Clouds: Overcast
Visibility: 10 miles , 16 km
Cloud details: Overcast 7000 ft
2021/11/29 13:55 K9MN 291355Z AUTO 14009G16KT 120V190 10SM OVC070 03/M06 A2980 RMK AO1 T00261061
KRST - Rochester, Minnesota, USA
Distance from station: SSW 10mi, 16km
Updated: 11/29/2021 7:54am
Light rain, Overcast
Light rain, Overcast
 Wind from S
Wind: S 18 mph , 30 km/h
Temperature: 36°F , 2°C
Wind Chill: 26°F , -3°C
Dew Point: 23°F , -5°C
Humidity: 60%
Barometer: 29.79 inHg , 1008.8 hPa
Summary: Light rain
Clouds: Overcast
Visibility: 10 miles , 16 km
Cloud details: Mostly cloudy 7000 ft
Overcast 11000 ft
2021/11/29 13:54 KRST 291354Z 17016KT 10SM -RA BKN070 OVC110 02/M05 A2979 RMK AO2 RAB42 SLP102 P0000 T00171050 $
 
KTOB - Dodge Center, Minnesota, USA
Distance from station: W 19mi, 30km
Updated: 11/29/2021 7:55am

 Wind from S
Wind: S 15 mph , 24 km/h
Temperature: 36°F , 2°C
Wind Chill: 27°F , -3°C
Dew Point: 21°F , -6°C
Humidity: 56%
Barometer: 29.78 inHg , 1008.5 hPa
Visibility: 10 miles , 16 km
2021/11/29 13:55 KTOB 291355Z AUTO 17013KT 10SM 02/M06 A2978 RMK AO2 PWINO
KFKA - Preston, Minnesota, USA
Distance from station: SSE 28mi, 45km
Updated: 11/29/2021 7:55am
Partly cloudy
Partly cloudy
 Wind from S
Wind: S 13 mph , 20 km/h
Temperature: 36°F , 2°C
Wind Chill: 27°F , -3°C
Dew Point: 21°F , -6°C
Humidity: 56%
Barometer: 29.82 inHg , 1009.8 hPa
Clouds: Partly cloudy
Visibility: 10 miles , 16 km
Cloud details: Partly cloudy 7500 ft
2021/11/29 13:55 KFKA 291355Z AUTO 18011KT 10SM SCT075 02/M06 A2982 RMK AO2 T00171062
 
KAUM - Austin Muni, Minnesota, USA
Distance from station: SW 35mi, 57km
Updated: 11/29/2021 7:55am
Overcast
Overcast
 Wind from S
Wind: S 13 mph , 20 km/h
Temperature: 36°F , 2°C
Wind Chill: 27°F , -3°C
Dew Point: 25°F , -4°C
Humidity: 65%
Barometer: 29.80 inHg , 1009.1 hPa
Clouds: Overcast
Visibility: 10 miles , 16 km
Cloud details: Partly cloudy 7000 ft
Overcast 11000 ft
2021/11/29 13:55 KAUM 291355Z AUTO 17011KT 10SM SCT070 OVC110 02/M04 A2980 RMK AO2
KONA - Winona Muni, Minnesota, USA
Distance from station: E 37mi, 59km
Updated: 11/28/2021 11:51am
NOT Current
Clear
Clear
 Wind from WNW
Wind: WNW 7 mph , 11 km/h
Temperature: 36°F , 2°C
Wind Chill: 30°F , -1°C
Dew Point: 18°F , -8°C
Humidity: 48%
Barometer: 30.13 inHg , 1020.3 hPa
Clouds: Clear
Visibility: 10 miles , 16 km
2021/11/28 17:51 KONA 281751Z AUTO 29006KT 10SM CLR 02/M08 A3013 RMK AO2
 
KRGK - Red Wing, Minnesota, USA
Distance from station: N 38mi, 61km
Updated: 11/29/2021 7:55am
Overcast
Overcast
 Wind from SE
Wind: SE 8 mph , 13 km/h
Temperature: 36°F , 2°C
Wind Chill: 30°F , -1°C
Dew Point: 19°F , -7°C
Humidity: 52%
Barometer: 29.80 inHg , 1009.1 hPa
Clouds: Overcast
Visibility: 10 miles , 16 km
Cloud details: Overcast 8000 ft
2021/11/29 13:55 KRGK 291355Z AUTO 14007KT 10SM UP OVC080 02/M07 A2980 RMK AO2
KOWA - Owatonna, Minnesota, USA
Distance from station: W 41mi, 65km
Updated: 11/29/2021 8:13am
Mostly cloudy
Mostly cloudy
 Wind from S
Wind: S 9 mph , 15 km/h
Temperature: 37°F , 3°C
Wind Chill: 30°F , -1°C
Dew Point: 25°F , -4°C
Humidity: 60%
Barometer: 29.76 inHg , 1007.8 hPa
Clouds: Mostly cloudy
Visibility: 10 miles , 16 km
Cloud details: Mostly cloudy 11000 ft
2021/11/29 14:13 KOWA 291413Z AUTO 17008KT 10SM BKN110 03/M04 A2976 RMK AO2
 
KSYN - Stanton, Minnesota, USA
Distance from station: NW 42mi, 68km
Updated: 11/29/2021 7:55am
Overcast
Overcast
 Wind from S
Wind: S 9 mph , 15 km/h
Temperature: 39°F , 4°C
Wind Chill: 33°F , 1°C
Dew Point: 23°F , -5°C
Humidity: 52%
Barometer: 29.77 inHg , 1008.1 hPa
Clouds: Overcast
Visibility: 10 miles , 16 km
Cloud details: Partly cloudy 8000 ft
Overcast 11000 ft
2021/11/29 13:55 KSYN 291355Z AUTO 17008KT 10SM SCT080 OVC110 04/M05 A2977 RMK AO2 T00361052
KFBL - Faribault Muni, Minnesota, USA
Distance from station: WNW 48mi, 77km
Updated: 11/29/2021 7:55am
Overcast
Overcast
 Wind from S
Wind: S 10 mph , 17 km/h
Temperature: 37°F , 3°C
Wind Chill: 30°F , -1°C
Dew Point: 25°F , -4°C
Humidity: 60%
Barometer: 29.76 inHg , 1007.8 hPa
Clouds: Overcast
Visibility: 10 miles , 16 km
Cloud details: Overcast 11000 ft
2021/11/29 13:55 KFBL 291355Z AUTO 17009KT 10SM OVC110 03/M04 A2976 RMK AO2